Time;durP1;ratioP1;P1;durP2;ratioP2;P2;SDS_P1;SDS_P2;PMS_P1;PMS_P2;Temp;Humidity;BMP_temperature;BMP_pressure;BME280_temperature;BME280_humidity;BME280_pressure;Samples;Min_cycle;Max_cycle;Signal;HPM_P1;HPM_P2
2021/11/23 00:01:41;;;;;;;8.05;4.68;;;-1.40;99.90;;;-3.53;100.00;102682.53;2570012;30;138638;-45
2021/11/23 00:04:10;;;;;;;8.10;4.80;;;-1.40;99.90;;;-3.62;100.00;102684.72;2569798;30;138310;-38
2021/11/23 00:06:38;;;;;;;8.63;4.47;;;-1.40;99.90;;;-3.57;100.00;102694.31;2568663;30;137467;-38
2021/11/23 00:09:06;;;;;;;10.73;5.00;;;-1.50;99.90;;;-3.58;100.00;102695.25;2572082;30;138424;-38
2021/11/23 00:11:33;;;;;;;;;;;-1.50;99.90;;;-3.60;100.00;102700.66;2570566;30;139050;-38
2021/11/23 00:14:01;;;;;;;9.88;4.50;;;-1.50;99.90;;;-3.64;100.00;102697.28;2570473;30;137818;-38
2021/11/23 00:16:29;;;;;;;8.55;4.65;;;-1.50;99.90;;;-3.62;100.00;102692.72;2569907;30;138458;-38
2021/11/23 00:18:56;;;;;;;8.45;4.60;;;-1.50;99.90;;;-3.63;100.00;102695.44;2572202;30;138809;-38
2021/11/23 00:21:24;;;;;;;9.23;5.15;;;-1.50;99.90;;;-3.63;100.00;102695.44;2570580;30;139093;-38
2021/11/23 00:23:51;;;;;;;8.80;4.47;;;-1.50;99.90;;;-3.64;100.00;102689.28;2568762;30;137470;-39
2021/11/23 00:26:19;;;;;;;8.68;4.70;;;-1.50;99.90;;;-3.65;100.00;102692.00;2569742;30;139380;-39
2021/11/23 00:28:47;;;;;;;10.43;5.13;;;-1.50;99.90;;;-3.66;100.00;102685.81;2570757;30;137447;-39
2021/11/23 00:31:15;;;;;;;8.07;4.85;;;-1.50;99.90;;;-3.67;100.00;102685.88;2571557;30;140108;-39
2021/11/23 00:33:43;;;;;;;8.30;5.28;;;-1.50;99.90;;;-3.68;100.00;102685.03;2568571;30;138287;-38
2021/11/23 00:36:11;;;;;;;8.45;5.10;;;-1.60;99.90;;;-3.72;100.00;102680.75;2571866;30;138494;-39
2021/11/23 00:38:42;;;;;;;7.93;4.40;;;-1.60;99.90;;;-3.71;100.00;102687.84;2570101;30;137103;-38
2021/11/23 00:41:12;;;;;;;7.95;4.82;;;-1.60;99.90;;;-3.67;100.00;102689.41;2573015;30;138434;-38
2021/11/23 00:43:40;;;;;;;8.93;4.35;;;-1.60;99.90;;;-3.67;100.00;102689.41;2568360;30;137588;-38
2021/11/23 00:46:08;;;;;;;8.45;4.38;;;-1.60;99.90;;;-3.69;100.00;102688.63;2569933;30;138563;-39
2021/11/23 00:48:36;;;;;;;8.38;4.55;;;-1.60;99.90;;;-3.71;100.00;102686.97;2571483;30;138426;-38
2021/11/23 00:51:05;;;;;;;;;;;-1.60;99.90;;;-3.71;100.00;102681.63;2569969;30;138496;-38
2021/11/23 00:53:34;;;;;;;8.25;4.88;;;-1.60;99.90;;;-3.73;100.00;102680.84;2570196;30;137407;-39
2021/11/23 00:56:04;;;;;;;9.48;5.60;;;-1.60;99.90;;;-3.75;100.00;102680.91;2570071;30;138811;-39
2021/11/23 00:58:33;;;;;;;10.07;5.00;;;-1.60;99.90;;;-3.76;100.00;102680.03;2568864;30;138187;-39
2021/11/23 01:01:01;;;;;;;9.50;4.82;;;-1.70;99.90;;;-3.76;100.00;102668.50;2569052;30;138497;-40
2021/11/23 01:03:32;;;;;;;9.10;4.88;;;-1.60;99.90;;;-3.73;100.00;102678.16;2567893;30;137437;-38
2021/11/23 01:06:02;;;;;;;9.20;4.95;;;-1.60;99.90;;;-3.70;100.00;102668.22;2571375;30;138407;-39
2021/11/23 01:08:30;;;;;;;8.98;4.57;;;-1.60;99.90;;;-3.70;100.00;102668.22;2570469;30;138232;-38
2021/11/23 01:10:58;;;;;;;7.30;3.88;;;-1.60;99.90;;;-3.66;100.00;102664.47;2571393;30;139419;-40
2021/11/23 01:13:26;;;;;;;10.60;5.03;;;-1.60;99.90;;;-3.68;100.00;102668.13;2573558;30;137684;-40
2021/11/23 01:15:53;;;;;;;9.48;5.07;;;-1.60;99.90;;;-3.69;100.00;102659.28;2568884;30;138330;-41
2021/11/23 01:18:21;;;;;;;11.20;4.63;;;-1.60;99.90;;;-3.64;100.00;102659.03;2569797;30;138157;-39
2021/11/23 01:20:49;;;;;;;10.68;5.35;;;-1.60;99.90;;;-3.63;100.00;102652.75;2569589;30;138654;-39
2021/11/23 01:23:17;;;;;;;9.15;5.00;;;-1.60;99.90;;;-3.64;100.00;102661.72;2569026;30;138534;-39
2021/11/23 01:25:45;;;;;;;6.95;4.75;;;-1.60;99.90;;;-3.66;100.00;102652.91;2568091;30;139362;-38
2021/11/23 01:28:12;;;;;;;10.35;4.88;;;-1.60;99.90;;;-3.66;100.00;102656.47;2572709;30;137438;-38
2021/11/23 01:30:41;;;;;;;9.50;5.65;;;-1.60;99.90;;;-3.63;100.00;102653.63;2573902;30;139314;-38
2021/11/23 01:33:09;;;;;;;11.13;5.85;;;-1.60;99.90;;;-3.64;100.00;102659.03;2570018;30;138663;-39
2021/11/23 01:35:39;;;;;;;9.95;5.40;;;-1.50;99.90;;;-3.70;100.00;102660.22;2573588;30;138405;-38
2021/11/23 01:38:07;;;;;;;;;;;-1.50;99.90;;;-3.69;100.00;102675.28;2573697;30;137573;-38
2021/11/23 01:40:36;;;;;;;10.60;4.70;;;-1.60;99.90;;;-3.72;100.00;102664.72;2570204;30;138285;-38
2021/11/23 01:43:05;;;;;;;10.85;5.28;;;-1.60;99.90;;;-3.76;100.00;102650.69;2570342;30;137189;-38
2021/11/23 01:45:37;;;;;;;11.82;5.18;;;-1.60;99.90;;;-3.72;100.00;102667.41;2572498;30;138665;-38
2021/11/23 01:48:07;;;;;;;10.00;4.65;;;-1.60;99.90;;;-3.73;100.00;102667.50;2570554;30;138421;-38
2021/11/23 01:50:35;;;;;;;11.85;4.43;;;-1.60;99.90;;;-3.69;100.00;102669.06;2572092;30;137516;-38
2021/11/23 01:53:07;;;;;;;8.13;4.85;;;-1.60;99.90;;;-3.76;100.00;102673.84;2568759;30;137598;-39
2021/11/23 01:55:42;;;;;;;11.32;4.93;;;-1.70;99.90;;;-3.80;100.00;102672.25;2571441;30;137955;-39
2021/11/23 01:58:13;;;;;;;11.73;5.00;;;-1.70;99.90;;;-3.77;100.00;102672.09;2571315;30;138448;-39
2021/11/23 02:00:43;;;;;;;9.07;4.88;;;-1.70;99.90;;;-3.79;100.00;102664.19;2572080;30;139110;-38
2021/11/23 02:03:11;;;;;;;7.70;4.47;;;-1.70;99.90;;;-3.80;100.00;102672.25;2568762;30;137616;-39
2021/11/23 02:05:40;;;;;;;9.77;4.82;;;-1.70;99.90;;;-3.82;100.00;102666.13;2568105;30;138450;-38
2021/11/23 02:08:10;;;;;;;8.13;4.68;;;-1.70;99.90;;;-3.83;100.00;102667.94;2570349;30;138072;-39
2021/11/23 02:10:40;;;;;;;8.68;4.70;;;-1.70;99.90;;;-3.82;100.00;102663.47;2569589;30;138925;-38
2021/11/23 02:13:08;;;;;;;8.82;4.68;;;-1.70;99.90;;;-3.85;100.00;102669.78;2569977;30;137899;-39
2021/11/23 02:15:37;;;;;;;10.65;4.97;;;-1.70;99.90;;;-3.91;100.00;102656.75;2569653;30;138536;-38
2021/11/23 02:18:21;;;;;;;10.10;4.85;;;-1.70;99.90;;;-3.90;100.00;102662.03;2569919;30;137497;-40
2021/11/23 02:20:50;;;;;;;8.63;5.18;;;-1.80;99.90;;;-3.93;100.00;102667.50;2571618;30;139317;-39
2021/11/23 02:23:19;;;;;;;9.85;5.18;;;-1.80;99.90;;;-3.90;100.00;102670.03;2572194;30;137751;-40
2021/11/23 02:25:48;;;;;;;10.70;5.28;;;-1.80;99.90;;;-3.86;100.00;102670.72;2568636;30;139353;-41
2021/11/23 02:28:17;;;;;;;8.98;4.93;;;-1.80;99.90;;;-3.88;100.00;102669.09;2568256;30;137998;-41
2021/11/23 02:30:49;;;;;;;12.52;5.60;;;-1.80;99.90;;;-3.87;100.00;102670.81;2568874;30;137731;-40
2021/11/23 02:33:21;;;;;;;9.63;5.63;;;-1.80;99.90;;;-3.89;100.00;102662.88;2569605;30;138309;-39
2021/11/23 02:35:53;;;;;;;8.75;5.10;;;-1.80;99.90;;;-3.85;100.00;102661.78;2569915;30;137730;-39
2021/11/23 02:38:24;;;;;;;11.90;6.13;;;-1.80;99.90;;;-3.88;100.00;102666.44;2569020;30;137336;-38
2021/11/23 02:40:53;;;;;;;10.68;5.65;;;-1.80;99.90;;;-3.91;100.00;102667.41;2568251;30;139144;-38
2021/11/23 02:43:21;;;;;;;10.85;5.75;;;-1.80;99.90;;;-3.89;100.00;102665.53;2568230;30;137754;-38
2021/11/23 02:45:50;;;;;;;9.70;5.70;;;-1.80;99.90;;;-3.85;100.00;102660.94;2570143;30;138290;-39
2021/11/23 02:48:18;;;;;;;10.77;5.68;;;-1.80;99.90;;;-3.81;100.00;102659.84;2571462;30;137723;-38
2021/11/23 02:50:55;;;;;;;9.57;5.18;;;-1.70;99.90;;;-3.77;100.00;102651.63;2569339;30;139201;-39
2021/11/23 02:53:24;;;;;;;11.73;5.20;;;-1.70;99.90;;;-3.77;100.00;102646.31;2569363;30;137434;-39
2021/11/23 02:55:51;;;;;;;10.82;5.38;;;-1.70;99.90;;;-3.81;100.00;102649.19;2570434;30;138380;-39
2021/11/23 02:58:19;;;;;;;9.82;5.10;;;-1.70;99.90;;;-3.83;100.00;102653.72;2564785;30;137698;-39
2021/11/23 03:00:47;;;;;;;10.55;5.80;;;-1.70;99.90;;;-3.85;100.00;102663.59;2566990;30;138409;-39
2021/11/23 03:03:16;;;;;;;11.98;6.13;;;-1.70;99.90;;;-3.84;100.00;102662.66;2567934;30;136867;-39
2021/11/23 03:05:44;;;;;;;10.32;5.35;;;-1.80;99.90;;;-3.80;100.00;102661.59;2567473;30;139397;-39
2021/11/23 03:08:14;;;;;;;10.52;5.00;;;-1.70;99.90;;;-3.80;100.00;102640.25;2567629;30;137498;-39
2021/11/23 03:10:42;;;;;;;9.02;5.10;;;-1.70;99.90;;;-3.73;100.00;102663.00;2567804;30;137241;-39
2021/11/23 03:13:10;;;;;;;8.85;4.60;;;-1.70;99.90;;;-3.68;100.00;102649.47;2567411;30;137876;-39
2021/11/23 03:15:37;;;;;;;9.23;5.45;;;-1.60;99.90;;;-3.56;100.00;102640.00;2567938;30;139290;-39
2021/11/23 03:18:06;;;;;;;9.27;5.20;;;-1.60;99.90;;;-3.49;100.00;102644.09;2566237;30;137428;-39
2021/11/23 03:20:34;;;;;;;11.57;5.78;;;-1.50;99.90;;;-3.37;100.00;102637.28;2568606;30;138410;-39
2021/11/23 03:23:02;;;;;;;10.00;5.57;;;-1.40;99.90;;;-3.28;100.00;102635.94;2566559;30;137201;-39
2021/11/23 03:25:29;;;;;;;;;;;-1.40;99.90;;;-3.22;100.00;102640.97;2566398;30;138044;-39
2021/11/23 03:28:01;;;;;;;13.77;6.07;;;-1.30;99.90;;;-3.15;100.00;102653.09;2568396;30;137290;-39
2021/11/23 03:30:30;;;;;;;;;;;-1.20;99.90;;;-3.10;100.00;102648.38;2567969;30;138243;-39
2021/11/23 03:33:01;;;;;;;11.90;5.18;;;-1.10;99.90;;;-2.99;100.00;102647.84;2568165;30;137357;-39
2021/11/23 03:35:32;;;;;;;10.60;5.82;;;-1.10;99.90;;;-2.90;100.00;102647.34;2567593;30;137632;-39
2021/11/23 03:38:01;;;;;;;12.40;5.55;;;-1.00;99.90;;;-2.85;100.00;102647.13;2567974;30;137560;-39
2021/11/23 03:40:32;;;;;;;11.52;6.43;;;-0.90;99.90;;;-2.79;100.00;102654.81;2568264;30;137273;-39
2021/11/23 03:43:00;;;;;;;12.07;6.32;;;-0.90;99.90;;;-2.74;100.00;102646.56;2567823;30;136688;-39
2021/11/23 03:45:29;;;;;;;14.52;6.28;;;-0.80;99.90;;;-2.64;100.00;102649.63;2565927;30;139167;-39
2021/11/23 03:47:58;;;;;;;10.63;5.82;;;-0.70;99.90;;;-2.54;100.00;102648.19;2568517;30;137607;-39
2021/11/23 03:50:28;;;;;;;14.18;7.50;;;-0.60;99.90;;;-2.49;100.00;102648.78;2569067;30;138285;-39
2021/11/23 03:52:57;;;;;;;12.68;6.35;;;-0.60;99.90;;;-2.45;100.00;102644.16;2568593;30;137635;-39
2021/11/23 03:55:26;;;;;;;13.00;6.70;;;-0.50;99.90;;;-2.39;100.00;102646.50;2568151;30;138147;-39
2021/11/23 03:57:56;;;;;;;12.45;6.57;;;-0.50;99.90;;;-2.31;100.00;102643.41;2568661;30;138345;-40
2021/11/23 04:00:24;;;;;;;13.38;6.68;;;-0.40;99.90;;;-2.24;100.00;102635.94;2568774;30;139208;-39
2021/11/23 04:02:54;;;;;;;13.38;6.47;;;-0.40;99.90;;;-2.22;100.00;102636.72;2566964;30;136953;-40
2021/11/23 04:05:21;;;;;;;12.93;6.47;;;-0.30;99.90;;;-2.15;100.00;102631.84;2565942;30;137248;-39
2021/11/23 04:07:51;;;;;;;13.27;6.63;;;-0.20;99.90;;;-2.11;100.00;102631.63;2569469;30;136992;-39
2021/11/23 04:10:20;;;;;;;12.13;6.82;;;-0.20;99.90;;;-2.09;100.00;102637.75;2566688;30;137222;-39
2021/11/23 04:12:48;;;;;;;11.48;6.57;;;-0.20;99.90;;;-2.06;100.00;102642.06;2569051;30;136876;-39
2021/11/23 04:15:16;;;;;;;11.45;6.13;;;-0.20;99.90;;;-2.02;100.00;102635.59;2568294;30;136835;-39
2021/11/23 04:17:44;;;;;;;;;;;-0.10;99.90;;;-1.97;100.00;102640.69;2568869;30;137405;-40
2021/11/23 04:20:12;;;;;;;9.82;6.10;;;-0.10;99.90;;;-1.96;100.00;102632.56;2568181;30;138484;-39
2021/11/23 04:22:40;;;;;;;11.95;6.70;;;0.00;99.90;;;-1.88;100.00;102640.19;2567593;30;136756;-39
2021/11/23 04:25:10;;;;;;;13.23;6.97;;;0.00;99.90;;;-1.83;100.00;102639.94;2568647;30;138330;-39
2021/11/23 04:27:39;;;;;;;12.65;6.97;;;0.00;99.90;;;-1.79;100.00;102636.13;2568761;30;138579;-40
2021/11/23 04:30:11;;;;;;;12.20;6.65;;;0.10;99.90;;;-1.74;100.00;102637.56;2568005;30;139316;-39
2021/11/23 04:32:40;;;;;;;10.88;6.47;;;0.10;99.90;;;-1.69;100.00;102631.97;2568459;30;137568;-39
2021/11/23 04:35:08;;;;;;;10.88;6.63;;;0.20;99.90;;;-1.63;100.00;102633.44;2567636;30;138390;-40
2021/11/23 04:37:35;;;;;;;;;;;0.20;99.90;;;-1.58;100.00;102630.50;2569096;30;136997;-39
2021/11/23 04:40:06;;;;;;;12.23;6.78;;;0.30;99.90;;;-1.53;100.00;102628.41;2567480;30;138196;-40
2021/11/23 04:42:34;;;;;;;13.40;7.53;;;0.30;99.90;;;-1.49;100.00;102635.31;2567275;30;137079;-40
2021/11/23 04:45:07;;;;;;;12.63;7.30;;;0.40;99.90;;;-1.46;100.00;102636.03;2568611;30;136684;-40
2021/11/23 04:47:37;;;;;;;13.57;7.22;;;0.40;99.90;;;-1.42;100.00;102630.47;2568554;30;136866;-39
2021/11/23 04:50:09;;;;;;;13.20;7.22;;;0.40;99.90;;;-1.40;100.00;102626.75;2568671;30;138489;-39
2021/11/23 04:52:37;;;;;;;12.70;6.90;;;0.50;99.90;;;-1.35;100.00;102631.84;2568347;30;137363;-39
2021/11/23 04:55:06;;;;;;;11.45;6.93;;;0.50;99.90;;;-1.32;100.00;102621.81;2567333;30;138525;-40
2021/11/23 04:57:33;;;;;;;14.13;7.40;;;0.60;99.90;;;-1.25;100.00;102624.97;2568031;30;137522;-40
2021/11/23 05:00:01;;;;;;;12.15;7.22;;;0.60;99.90;;;-1.22;100.00;102634.66;2565904;30;137333;-40
2021/11/23 05:02:28;;;;;;;;;;;0.60;99.90;;;-1.21;100.00;102634.56;2569310;30;137766;-40
2021/11/23 05:04:56;;;;;;;11.60;6.72;;;0.70;99.90;;;-1.18;100.00;102628.16;2565796;30;138304;-39
2021/11/23 05:07:24;;;;;;;13.13;6.55;;;0.70;99.90;;;-1.14;100.00;102631.53;2568515;30;138026;-40
2021/11/23 05:09:51;;;;;;;12.43;7.20;;;0.70;99.90;;;-1.13;100.00;102630.59;2564990;30;137890;-39
2021/11/23 05:12:20;;;;;;;12.63;6.95;;;0.70;99.90;;;-1.10;100.00;102625.88;2568856;30;137107;-40
2021/11/23 05:14:48;;;;;;;12.68;7.60;;;0.80;99.90;;;-1.09;100.00;102630.28;2567917;30;138588;-40
2021/11/23 05:17:16;;;;;;;13.50;7.97;;;0.80;99.90;;;-1.04;100.00;102621.97;2568682;30;138417;-39
2021/11/23 05:19:44;;;;;;;13.07;7.25;;;0.80;99.90;;;-1.02;100.00;102626.31;2566976;30;137310;-39
2021/11/23 05:22:12;;;;;;;14.00;8.13;;;0.90;99.90;;;-0.97;100.00;102615.28;2568632;30;136803;-40
2021/11/23 05:24:40;;;;;;;12.35;7.07;;;0.90;99.90;;;-0.93;100.00;102621.34;2568998;30;136709;-40
2021/11/23 05:27:08;;;;;;;11.43;7.25;;;0.90;99.90;;;-0.91;100.00;102624.78;2567504;30;137465;-39
2021/11/23 05:29:35;;;;;;;14.73;7.28;;;0.90;99.90;;;-0.91;100.00;102630.16;2565186;30;137378;-39
2021/11/23 05:32:04;;;;;;;14.35;7.20;;;1.00;99.90;;;-0.89;100.00;102634.47;2567786;30;138545;-40
2021/11/23 05:34:34;;;;;;;15.68;7.97;;;1.00;99.90;;;-0.87;100.00;102629.88;2567540;30;137531;-39
2021/11/23 05:37:02;;;;;;;13.73;7.35;;;1.00;99.90;;;-0.83;100.00;102627.00;2567074;30;138334;-39
2021/11/23 05:39:43;;;;;;;13.75;7.25;;;1.00;99.90;;;-0.81;100.00;102628.63;2567434;30;138324;-40
2021/11/23 05:42:25;;;;;;;13.55;7.38;;;1.10;99.90;;;-0.80;100.00;102626.81;2567553;30;137454;-40
2021/11/23 05:45:10;;;;;;;13.68;6.82;;;1.10;99.90;;;-0.81;100.00;102631.31;2568504;30;138276;-39
2021/11/23 05:47:52;;;;;;;12.60;6.68;;;1.10;99.90;;;-0.78;100.00;102632.94;2566660;30;138324;-40
2021/11/23 05:50:33;;;;;;;13.98;7.38;;;1.10;99.90;;;-0.76;100.00;102631.91;2568444;30;138333;-39
2021/11/23 05:53:15;;;;;;;13.50;7.18;;;1.10;99.90;;;-0.72;100.00;102624.53;2568508;30;137741;-39
2021/11/23 05:55:57;;;;;;;12.43;7.07;;;1.10;99.90;;;-0.68;100.00;102623.38;2567265;30;138352;-39
2021/11/23 05:58:38;;;;;;;12.95;7.25;;;1.20;99.90;;;-0.63;100.00;102628.47;2566535;30;137341;-39
2021/11/23 06:01:20;;;;;;;14.18;7.63;;;1.20;99.90;;;-0.59;100.00;102625.50;2568077;30;138421;-39
2021/11/23 06:04:01;;;;;;;14.60;7.05;;;1.20;99.90;;;-0.55;100.00;102626.16;2568287;30;138561;-40
2021/11/23 06:06:43;;;;;;;12.70;6.88;;;1.30;99.90;;;-0.51;100.00;102627.72;2566218;30;137906;-39
2021/11/23 06:09:25;;;;;;;13.05;6.78;;;1.30;99.90;;;-0.46;100.00;102627.41;2568145;30;137382;-40
2021/11/23 06:12:07;;;;;;;20.75;8.50;;;1.40;99.90;;;-0.42;100.00;102630.78;2563740;38;137276;-40
2021/11/23 06:14:49;;;;;;;15.82;8.43;;;1.40;99.90;;;-0.37;100.00;102617.94;2567904;30;138400;-40
2021/11/23 06:17:30;;;;;;;16.05;8.52;;;1.50;99.90;;;-0.32;100.00;102623.88;2565221;30;137533;-39
2021/11/23 06:20:12;;;;;;;15.02;8.27;;;1.50;99.90;;;-0.27;100.00;102621.75;2567492;30;137435;-40
2021/11/23 06:22:59;;;;;;;15.73;8.15;;;1.50;99.90;;;-0.23;100.00;102617.06;2567810;30;138102;-40
2021/11/23 06:25:49;;;;;;;19.10;9.23;;;1.60;99.90;;;-0.20;100.00;102622.22;2567486;30;138278;-39
2021/11/23 06:28:31;;;;;;;17.10;8.63;;;1.60;99.90;;;-0.16;100.00;102629.13;2566833;30;138761;-40
2021/11/23 06:31:14;;;;;;;20.48;9.98;;;1.70;99.90;;;-0.12;100.00;102628.00;2569685;30;137253;-40
2021/11/23 06:33:55;;;;;;;16.45;9.88;;;1.70;99.90;;;-0.04;100.00;102625.69;2566815;30;138306;-40
2021/11/23 06:36:37;;;;;;;18.05;9.68;;;1.80;99.90;;;0.01;100.00;102630.75;2567871;30;137501;-40
2021/11/23 06:39:19;;;;;;;18.95;10.10;;;1.80;99.90;;;0.05;100.00;102640.34;2564467;30;137050;-39
2021/11/23 06:42:01;;;;;;;22.40;10.27;;;1.90;99.90;;;0.08;100.00;102639.25;2568320;30;137033;-40
2021/11/23 06:44:42;;;;;;;22.20;10.40;;;1.90;99.90;;;0.11;100.00;102636.38;2568357;30;138739;-40
2021/11/23 06:47:24;;;;;;;18.25;9.55;;;1.90;99.90;;;0.14;100.00;102645.09;2567369;30;137961;-40
2021/11/23 06:50:07;;;;;;;17.35;9.65;;;1.90;99.90;;;0.20;100.00;102648.34;2567507;30;138315;-40
2021/11/23 06:52:48;;;;;;;20.05;10.70;;;2.00;99.90;;;0.23;100.00;102656.19;2567485;30;136981;-40
2021/11/23 06:55:30;;;;;;;19.95;10.30;;;2.00;99.90;;;0.25;100.00;102656.94;2568324;30;138469;-40
2021/11/23 06:58:11;;;;;;;20.73;10.68;;;2.10;99.90;;;0.31;100.00;102664.63;2566912;30;136735;-40
2021/11/23 07:00:53;;;;;;;19.10;10.90;;;2.10;99.90;;;0.33;100.00;102662.72;2568538;30;138554;-40
2021/11/23 07:03:34;;;;;;;22.42;11.93;;;2.10;99.90;;;0.35;100.00;102663.47;2568692;30;136652;-39
2021/11/23 07:06:16;;;;;;;22.98;11.60;;;2.10;99.90;;;0.37;100.00;102660.66;2568063;30;138441;-39
2021/11/23 07:08:57;;;;;;;21.85;12.05;;;2.20;99.90;;;0.41;100.00;102672.97;2567504;30;136791;-40
2021/11/23 07:11:39;;;;;;;21.35;11.93;;;2.20;99.90;;;0.43;100.00;102668.34;2567582;30;138393;-40
2021/11/23 07:14:22;;;;;;;21.10;11.38;;;2.20;99.90;;;0.43;100.00;102671.03;2567338;30;137422;-40
2021/11/23 07:17:04;;;;;;;25.45;13.95;;;2.20;99.90;;;0.45;100.00;102662.84;2566858;30;138627;-40
2021/11/23 07:19:46;;;;;;;24.55;11.70;;;2.30;99.90;;;0.48;100.00;102668.03;2566401;30;137406;-39
2021/11/23 07:22:27;;;;;;;22.45;12.25;;;2.30;99.90;;;0.51;100.00;102666.00;2567245;30;138451;-40
2021/11/23 07:25:09;;;;;;;24.13;12.68;;;2.30;99.90;;;0.55;100.00;102667.53;2566210;30;137371;-40
2021/11/23 07:27:51;;;;;;;25.85;12.73;;;2.30;99.90;;;0.56;100.00;102668.41;2569490;30;138928;-40
2021/11/23 07:30:32;;;;;;;28.13;14.02;;;2.40;99.90;;;0.56;100.00;102676.47;2569131;30;136677;-40
2021/11/23 07:33:14;;;;;;;25.80;13.93;;;2.30;99.90;;;0.60;100.00;102675.28;2569767;30;137432;-40
2021/11/23 07:35:55;;;;;;;31.40;14.13;;;2.40;99.90;;;0.57;100.00;102672.81;2566847;30;137393;-40
2021/11/23 07:38:37;;;;;;;27.60;13.63;;;2.40;99.90;;;0.67;100.00;102686.50;2568379;30;137351;-40
2021/11/23 07:41:19;;;;;;;26.42;12.35;;;2.40;99.90;;;0.73;100.00;102682.53;2567824;30;136876;-39
2021/11/23 07:44:02;;;;;;;25.08;12.25;;;2.50;99.90;;;0.75;100.00;102673.41;2566999;30;137421;-39
2021/11/23 07:46:44;;;;;;;27.23;14.07;;;2.50;99.90;;;0.75;100.00;102668.03;2568246;30;138172;-40
2021/11/23 07:49:25;;;;;;;28.75;13.52;;;2.60;99.90;;;0.82;100.00;102677.41;2567410;30;139002;-39
2021/11/23 07:52:07;;;;;;;24.88;13.70;;;2.60;99.90;;;0.86;100.00;102686.13;2566589;30;138276;-39
2021/11/23 07:54:48;;;;;;;28.98;14.32;;;2.60;99.90;;;0.88;100.00;102686.88;2567778;30;138202;-40
2021/11/23 07:57:32;;;;;;;27.10;13.38;;;2.70;99.90;;;0.93;100.00;102690.13;2567879;30;136916;-40
2021/11/23 08:00:14;;;;;;;26.55;13.93;;;2.70;99.90;;;1.02;100.00;102698.53;2568084;30;137024;-39
2021/11/23 08:02:56;;;;;;;25.67;13.15;;;2.80;99.90;;;1.05;100.00;102693.81;2568457;30;137293;-39
2021/11/23 08:05:39;;;;;;;25.33;13.55;;;2.80;99.90;;;1.11;100.00;102701.47;2567736;30;137807;-39
2021/11/23 08:08:21;;;;;;;25.65;13.20;;;2.80;99.90;;;1.20;100.00;102699.97;2565601;30;137669;-39
2021/11/23 08:11:04;;;;;;;27.38;14.05;;;2.90;99.90;;;1.28;100.00;102697.63;2569091;30;138142;-39
2021/11/23 08:13:45;;;;;;;28.77;13.30;;;3.00;99.90;;;1.34;100.00;102700.88;2567999;30;137535;-40
2021/11/23 08:16:27;;;;;;;29.80;14.25;;;3.00;99.90;;;1.43;100.00;102702.91;2568879;30;138395;-39
2021/11/23 08:19:09;;;;;;;26.38;13.98;;;3.10;99.90;;;1.45;100.00;102703.69;2568957;30;137502;-40
2021/11/23 08:21:50;;;;;;;27.48;14.63;;;3.20;99.90;;;1.48;100.00;102695.38;2568159;30;137335;-39
2021/11/23 08:24:32;;;;;;;28.80;14.02;;;3.20;99.90;;;1.47;100.00;102687.44;2567942;30;137448;-40
2021/11/23 08:27:13;;;;;;;30.00;15.52;;;3.20;99.90;;;1.47;100.00;102690.13;2567996;30;138214;-40
2021/11/23 08:29:55;;;;;;;31.75;14.07;;;3.20;99.90;;;1.55;100.00;102699.38;2568470;30;137443;-39
2021/11/23 08:32:37;;;;;;;29.02;15.15;;;3.30;99.90;;;1.63;100.00;102698.84;2566266;30;138575;-40
2021/11/23 08:35:18;;;;;;;29.40;15.45;;;3.30;99.90;;;1.66;100.00;102700.47;2567556;30;137007;-40
2021/11/23 08:38:00;;;;;;;29.88;14.60;;;3.30;99.90;;;1.68;100.00;102706.59;2567991;30;138270;-40
2021/11/23 08:40:41;;;;;;;31.05;14.82;;;3.40;99.90;;;1.67;100.00;102702.19;2565772;30;136817;-40
2021/11/23 08:43:23;;;;;;;31.58;15.88;;;3.40;99.90;;;1.72;100.00;102711.66;2569414;30;138282;-40
2021/11/23 08:46:05;;;;;;;28.90;14.88;;;3.40;99.90;;;1.64;100.00;102711.31;2568733;30;137265;-39
2021/11/23 08:48:46;;;;;;;35.25;15.05;;;3.40;99.90;;;1.65;100.00;102707.66;2568702;30;136768;-40
2021/11/23 08:51:31;;;;;;;33.65;15.35;;;3.40;99.90;;;1.67;100.00;102707.56;2568676;30;137034;-39
2021/11/23 08:57:00;;;;;;;25.73;14.20;;;3.40;99.90;;;1.68;100.00;102710.13;2569273;30;137378;-39
2021/11/23 08:59:43;;;;;;;32.10;15.10;;;3.40;99.90;;;1.70;100.00;102704.66;2569619;30;137710;-38
2021/11/23 09:02:24;;;;;;;26.38;15.02;;;3.40;99.90;;;1.75;100.00;102707.88;2569284;30;136719;-38
2021/11/23 09:05:11;;;;;;;31.75;15.63;;;3.50;99.90;;;1.82;100.00;102714.53;2569163;30;137601;-38
2021/11/23 09:07:53;;;;;;;27.77;14.55;;;3.50;99.90;;;1.89;100.00;102719.53;2568247;30;138604;-38
2021/11/23 09:10:39;;;;;;;27.77;14.32;;;3.60;99.90;;;1.94;100.00;102722.75;2571282;30;138662;-38
2021/11/23 09:13:21;;;;;;;27.42;13.90;;;3.60;99.90;;;1.96;100.00;102721.66;2571733;30;137729;-38
2021/11/23 09:16:02;;;;;;;32.15;15.13;;;3.70;99.90;;;2.01;100.00;102724.03;2572083;30;138238;-38
2021/11/23 09:18:44;;;;;;;31.13;14.60;;;3.70;99.90;;;2.06;100.00;102721.84;2572424;30;136743;-38
2021/11/23 09:21:27;;;;;;;29.50;14.65;;;3.70;99.90;;;2.05;100.00;102730.91;2571330;30;137306;-38
2021/11/23 09:24:09;;;;;;;35.15;16.00;;;3.70;99.90;;;2.08;100.00;102724.44;2570374;30;136961;-38
2021/11/23 09:26:52;;;;;;;26.02;14.27;;;3.70;99.90;;;2.10;100.00;102719.81;2568408;30;137274;-38
2021/11/23 09:29:33;;;;;;;28.98;14.75;;;3.80;99.90;;;2.19;100.00;102721.84;2569982;30;137543;-38
2021/11/23 09:32:17;;;;;;;29.45;15.27;;;3.90;99.90;;;2.23;100.00;102726.03;2571235;30;137347;-40
2021/11/23 09:34:59;;;;;;;30.90;14.85;;;3.90;99.90;;;2.29;100.00;102727.41;2569332;30;138196;-38
2021/11/23 09:37:43;;;;;;;31.75;16.25;;;3.90;99.90;;;2.37;100.00;102714.25;2571225;30;137289;-38
2021/11/23 09:40:25;;;;;;;31.00;15.27;;;4.00;99.90;;;2.40;100.00;102723.94;2568439;30;137518;-38
2021/11/23 09:43:07;;;;;;;34.17;16.38;;;4.10;99.90;;;2.43;100.00;102718.34;2571747;30;137254;-38
2021/11/23 09:45:49;;;;;;;28.85;15.65;;;4.10;99.90;;;2.50;100.00;102716.91;2569984;30;136933;-38
2021/11/23 09:48:30;;;;;;;30.25;15.77;;;4.10;99.90;;;2.56;100.00;102718.28;2567305;30;138456;-38
2021/11/23 09:51:17;;;;;;;30.45;15.77;;;4.20;99.90;;;2.67;100.00;102718.38;2569808;30;138315;-39
2021/11/23 09:54:02;;;;;;;32.30;15.70;;;4.30;99.90;;;2.69;100.00;102716.44;2570440;30;139106;-38
2021/11/23 09:56:46;;;;;;;31.67;16.48;;;4.30;99.90;;;2.72;100.00;102715.31;2569999;30;137385;-38
2021/11/23 09:59:28;;;;;;;31.50;15.75;;;4.40;99.90;;;2.71;100.00;102714.47;2569178;30;138350;-38
2021/11/23 10:02:09;;;;;;;33.95;16.95;;;4.40;99.90;;;2.72;100.00;102713.50;2570353;30;137365;-38
2021/11/23 10:05:18;;;;;;;27.65;16.65;;;4.40;99.90;;;2.71;100.00;102719.88;2569630;30;138300;-38
2021/11/23 10:08:16;;;;;;;29.90;15.52;;;4.40;99.90;;;2.70;100.00;102715.44;2570983;30;137089;-38
2021/11/23 10:10:58;;;;;;;29.92;15.48;;;4.40;99.90;;;2.76;100.00;102710.56;2570708;30;138359;-38
2021/11/23 10:13:42;;;;;;;30.92;15.50;;;4.40;99.90;;;2.82;100.00;102707.41;2568956;30;137073;-37
2021/11/23 10:16:36;;;;;;;27.42;14.95;;;4.50;99.90;;;2.87;100.00;102705.22;2570046;30;137073;-38
2021/11/23 10:19:19;;;;;;;25.88;14.73;;;4.50;99.90;;;2.90;100.00;102705.00;2569335;30;138577;-38
2021/11/23 10:22:00;;;;;;;30.73;16.77;;;4.50;99.90;;;3.02;100.00;102704.06;2571560;30;138364;-38
2021/11/23 10:24:42;;;;;;;26.25;15.80;;;4.60;99.90;;;3.06;100.00;102703.84;2570801;30;137439;-38
2021/11/23 10:27:23;;;;;;;31.30;16.25;;;4.70;99.90;;;3.09;100.00;102707.19;2569601;30;138429;-38
2021/11/23 10:30:07;;;;;;;32.00;17.33;;;4.70;99.90;;;3.08;100.00;102705.47;2569982;30;136942;-38
2021/11/23 10:32:53;;;;;;;29.20;16.42;;;4.70;99.90;;;3.14;100.00;102706.81;2568207;30;139483;-38
2021/11/23 10:35:39;;;;;;;30.85;16.83;;;4.80;99.90;;;3.18;100.00;102697.50;2569862;30;137744;-38